sensor_id;sensor_type;location;lat;lon;timestamp;P1;durP1;ratioP1;P2;durP2;ratioP2
24261;SDS011;12385;51.412;5.540;2023-06-19T00:00:15;8.43;;;4.63;;
24261;SDS011;12385;51.412;5.540;2023-06-19T00:02:41;6.18;;;4.40;;
24261;SDS011;12385;51.412;5.540;2023-06-19T00:05:08;6.97;;;4.40;;
24261;SDS011;12385;51.412;5.540;2023-06-19T00:07:37;6.35;;;4.95;;
24261;SDS011;12385;51.412;5.540;2023-06-19T00:10:04;8.63;;;5.03;;
24261;SDS011;12385;51.412;5.540;2023-06-19T00:12:31;8.02;;;4.97;;
24261;SDS011;12385;51.412;5.540;2023-06-19T00:14:57;6.68;;;4.85;;
24261;SDS011;12385;51.412;5.540;2023-06-19T00:17:25;7.43;;;4.85;;
24261;SDS011;12385;51.412;5.540;2023-06-19T00:19:53;9.52;;;4.68;;
24261;SDS011;12385;51.412;5.540;2023-06-19T00:22:19;6.15;;;4.95;;
24261;SDS011;12385;51.412;5.540;2023-06-19T00:24:45;6.25;;;4.47;;
24261;SDS011;12385;51.412;5.540;2023-06-19T00:27:11;7.53;;;5.10;;
24261;SDS011;12385;51.412;5.540;2023-06-19T00:29:36;8.75;;;4.82;;
24261;SDS011;12385;51.412;5.540;2023-06-19T00:32:02;6.45;;;4.93;;
24261;SDS011;12385;51.412;5.540;2023-06-19T00:34:28;7.63;;;5.00;;
24261;SDS011;12385;51.412;5.540;2023-06-19T00:36:56;8.88;;;5.18;;
24261;SDS011;12385;51.412;5.540;2023-06-19T00:39:25;8.63;;;5.05;;
24261;SDS011;12385;51.412;5.540;2023-06-19T00:41:52;6.55;;;4.88;;
24261;SDS011;12385;51.412;5.540;2023-06-19T00:44:18;8.70;;;5.10;;
24261;SDS011;12385;51.412;5.540;2023-06-19T00:46:44;6.03;;;4.95;;
24261;SDS011;12385;51.412;5.540;2023-06-19T00:49:10;10.35;;;5.15;;
24261;SDS011;12385;51.412;5.540;2023-06-19T00:51:37;6.45;;;5.25;;
24261;SDS011;12385;51.412;5.540;2023-06-19T00:54:03;9.07;;;5.25;;
24261;SDS011;12385;51.412;5.540;2023-06-19T00:56:29;10.07;;;5.38;;
24261;SDS011;12385;51.412;5.540;2023-06-19T00:58:56;8.10;;;5.40;;
24261;SDS011;12385;51.412;5.540;2023-06-19T01:01:21;6.85;;;5.40;;
24261;SDS011;12385;51.412;5.540;2023-06-19T01:03:48;6.78;;;4.85;;
24261;SDS011;12385;51.412;5.540;2023-06-19T01:06:15;6.95;;;5.15;;
24261;SDS011;12385;51.412;5.540;2023-06-19T01:11:14;6.72;;;5.00;;
24261;SDS011;12385;51.412;5.540;2023-06-19T01:13:46;7.75;;;5.30;;
24261;SDS011;12385;51.412;5.540;2023-06-19T01:16:15;7.55;;;5.10;;
24261;SDS011;12385;51.412;5.540;2023-06-19T01:18:42;6.75;;;5.18;;
24261;SDS011;12385;51.412;5.540;2023-06-19T01:21:11;7.40;;;5.13;;
24261;SDS011;12385;51.412;5.540;2023-06-19T01:23:39;8.15;;;4.88;;
24261;SDS011;12385;51.412;5.540;2023-06-19T01:26:05;6.22;;;4.90;;
24261;SDS011;12385;51.412;5.540;2023-06-19T01:28:32;6.10;;;4.78;;
24261;SDS011;12385;51.412;5.540;2023-06-19T01:30:59;6.90;;;4.82;;
24261;SDS011;12385;51.412;5.540;2023-06-19T01:33:27;7.78;;;4.57;;
24261;SDS011;12385;51.412;5.540;2023-06-19T01:35:55;8.52;;;4.40;;
24261;SDS011;12385;51.412;5.540;2023-06-19T01:38:23;6.78;;;4.13;;
24261;SDS011;12385;51.412;5.540;2023-06-19T01:40:54;9.52;;;4.68;;
24261;SDS011;12385;51.412;5.540;2023-06-19T01:43:21;8.43;;;4.40;;
24261;SDS011;12385;51.412;5.540;2023-06-19T01:45:48;5.75;;;4.20;;
24261;SDS011;12385;51.412;5.540;2023-06-19T01:48:14;6.32;;;4.05;;
24261;SDS011;12385;51.412;5.540;2023-06-19T01:50:40;6.47;;;4.20;;
24261;SDS011;12385;51.412;5.540;2023-06-19T01:53:10;6.63;;;4.32;;
24261;SDS011;12385;51.412;5.540;2023-06-19T01:55:36;5.82;;;4.20;;
24261;SDS011;12385;51.412;5.540;2023-06-19T01:58:02;6.63;;;4.20;;
24261;SDS011;12385;51.412;5.540;2023-06-19T02:00:28;5.47;;;4.00;;
24261;SDS011;12385;51.412;5.540;2023-06-19T02:02:54;4.65;;;3.55;;
24261;SDS011;12385;51.412;5.540;2023-06-19T02:05:19;5.85;;;3.42;;
24261;SDS011;12385;51.412;5.540;2023-06-19T02:07:45;6.50;;;3.65;;
24261;SDS011;12385;51.412;5.540;2023-06-19T02:10:10;4.57;;;3.47;;
24261;SDS011;12385;51.412;5.540;2023-06-19T02:12:36;9.30;;;3.95;;
24261;SDS011;12385;51.412;5.540;2023-06-19T02:15:02;4.53;;;3.58;;
24261;SDS011;12385;51.412;5.540;2023-06-19T02:17:28;4.85;;;3.60;;
24261;SDS011;12385;51.412;5.540;2023-06-19T02:19:54;4.57;;;3.30;;
24261;SDS011;12385;51.412;5.540;2023-06-19T02:22:20;6.22;;;3.60;;
24261;SDS011;12385;51.412;5.540;2023-06-19T02:24:46;4.45;;;3.38;;
24261;SDS011;12385;51.412;5.540;2023-06-19T02:27:11;5.63;;;3.40;;
24261;SDS011;12385;51.412;5.540;2023-06-19T02:29:37;5.30;;;3.30;;
24261;SDS011;12385;51.412;5.540;2023-06-19T02:32:02;4.90;;;3.47;;
24261;SDS011;12385;51.412;5.540;2023-06-19T02:34:30;4.40;;;3.40;;
24261;SDS011;12385;51.412;5.540;2023-06-19T02:36:56;5.10;;;3.35;;
24261;SDS011;12385;51.412;5.540;2023-06-19T02:39:21;5.30;;;3.65;;
24261;SDS011;12385;51.412;5.540;2023-06-19T02:41:49;3.60;;;3.22;;
24261;SDS011;12385;51.412;5.540;2023-06-19T02:44:14;6.15;;;3.60;;
24261;SDS011;12385;51.412;5.540;2023-06-19T02:46:40;3.70;;;3.13;;
24261;SDS011;12385;51.412;5.540;2023-06-19T02:49:06;7.65;;;3.58;;
24261;SDS011;12385;51.412;5.540;2023-06-19T02:51:31;4.78;;;3.28;;
24261;SDS011;12385;51.412;5.540;2023-06-19T02:53:57;7.70;;;4.00;;
24261;SDS011;12385;51.412;5.540;2023-06-19T02:56:23;4.90;;;3.50;;
24261;SDS011;12385;51.412;5.540;2023-06-19T02:58:54;4.05;;;3.30;;
24261;SDS011;12385;51.412;5.540;2023-06-19T03:01:19;4.90;;;3.67;;
24261;SDS011;12385;51.412;5.540;2023-06-19T03:03:45;5.22;;;3.42;;
24261;SDS011;12385;51.412;5.540;2023-06-19T03:06:13;3.58;;;3.13;;
24261;SDS011;12385;51.412;5.540;2023-06-19T03:08:38;4.70;;;3.15;;
24261;SDS011;12385;51.412;5.540;2023-06-19T03:11:04;4.72;;;3.20;;
24261;SDS011;12385;51.412;5.540;2023-06-19T03:13:36;5.13;;;3.25;;
24261;SDS011;12385;51.412;5.540;2023-06-19T03:16:19;7.53;;;3.53;;
24261;SDS011;12385;51.412;5.540;2023-06-19T03:18:45;7.25;;;3.17;;
24261;SDS011;12385;51.412;5.540;2023-06-19T03:21:14;7.35;;;3.60;;
24261;SDS011;12385;51.412;5.540;2023-06-19T03:23:40;6.47;;;3.40;;
24261;SDS011;12385;51.412;5.540;2023-06-19T03:26:06;6.38;;;3.45;;
24261;SDS011;12385;51.412;5.540;2023-06-19T03:28:33;7.10;;;3.08;;
24261;SDS011;12385;51.412;5.540;2023-06-19T03:30:58;5.50;;;3.40;;
24261;SDS011;12385;51.412;5.540;2023-06-19T03:33:25;4.03;;;3.13;;
24261;SDS011;12385;51.412;5.540;2023-06-19T03:35:51;6.63;;;3.40;;
24261;SDS011;12385;51.412;5.540;2023-06-19T03:38:16;7.30;;;3.40;;
24261;SDS011;12385;51.412;5.540;2023-06-19T03:40:42;4.15;;;3.33;;
24261;SDS011;12385;51.412;5.540;2023-06-19T03:43:08;5.10;;;3.40;;
24261;SDS011;12385;51.412;5.540;2023-06-19T03:45:33;6.75;;;3.40;;
24261;SDS011;12385;51.412;5.540;2023-06-19T03:47:59;5.80;;;3.42;;
24261;SDS011;12385;51.412;5.540;2023-06-19T03:50:32;5.40;;;3.22;;
24261;SDS011;12385;51.412;5.540;2023-06-19T03:52:57;6.07;;;3.83;;
24261;SDS011;12385;51.412;5.540;2023-06-19T03:55:23;4.93;;;3.15;;
24261;SDS011;12385;51.412;5.540;2023-06-19T03:57:52;4.85;;;3.47;;
24261;SDS011;12385;51.412;5.540;2023-06-19T04:00:18;8.48;;;3.70;;
24261;SDS011;12385;51.412;5.540;2023-06-19T04:02:44;5.57;;;3.70;;
24261;SDS011;12385;51.412;5.540;2023-06-19T04:05:13;5.93;;;3.53;;
24261;SDS011;12385;51.412;5.540;2023-06-19T04:07:40;5.15;;;3.22;;
24261;SDS011;12385;51.412;5.540;2023-06-19T04:10:06;8.48;;;3.50;;
24261;SDS011;12385;51.412;5.540;2023-06-19T04:12:33;4.57;;;3.40;;
24261;SDS011;12385;51.412;5.540;2023-06-19T04:14:59;7.22;;;3.40;;
24261;SDS011;12385;51.412;5.540;2023-06-19T04:17:25;4.80;;;3.28;;
24261;SDS011;12385;51.412;5.540;2023-06-19T04:19:51;5.32;;;3.50;;
24261;SDS011;12385;51.412;5.540;2023-06-19T04:22:16;7.20;;;3.33;;
24261;SDS011;12385;51.412;5.540;2023-06-19T04:24:42;7.65;;;3.55;;
24261;SDS011;12385;51.412;5.540;2023-06-19T04:27:08;6.32;;;3.35;;
24261;SDS011;12385;51.412;5.540;2023-06-19T04:29:34;6.15;;;3.53;;
24261;SDS011;12385;51.412;5.540;2023-06-19T04:32:02;7.20;;;3.80;;
24261;SDS011;12385;51.412;5.540;2023-06-19T04:34:36;8.75;;;3.67;;
24261;SDS011;12385;51.412;5.540;2023-06-19T04:37:06;6.63;;;3.92;;
24261;SDS011;12385;51.412;5.540;2023-06-19T04:39:32;4.85;;;3.30;;
24261;SDS011;12385;51.412;5.540;2023-06-19T04:41:58;6.45;;;3.63;;
24261;SDS011;12385;51.412;5.540;2023-06-19T04:44:25;5.88;;;3.67;;
24261;SDS011;12385;51.412;5.540;2023-06-19T04:46:50;6.30;;;3.38;;
24261;SDS011;12385;51.412;5.540;2023-06-19T04:49:16;6.88;;;3.63;;
24261;SDS011;12385;51.412;5.540;2023-06-19T04:51:42;6.57;;;3.60;;
24261;SDS011;12385;51.412;5.540;2023-06-19T04:54:09;4.95;;;3.53;;
24261;SDS011;12385;51.412;5.540;2023-06-19T04:56:35;11.13;;;3.53;;
24261;SDS011;12385;51.412;5.540;2023-06-19T04:59:00;5.40;;;3.47;;
24261;SDS011;12385;51.412;5.540;2023-06-19T05:01:27;4.75;;;3.65;;
24261;SDS011;12385;51.412;5.540;2023-06-19T05:03:54;5.25;;;3.30;;
24261;SDS011;12385;51.412;5.540;2023-06-19T05:06:22;5.05;;;3.40;;
24261;SDS011;12385;51.412;5.540;2023-06-19T05:08:50;5.03;;;3.80;;
24261;SDS011;12385;51.412;5.540;2023-06-19T05:11:17;5.70;;;3.30;;
24261;SDS011;12385;51.412;5.540;2023-06-19T05:13:43;4.78;;;3.50;;
24261;SDS011;12385;51.412;5.540;2023-06-19T05:16:08;5.20;;;3.78;;
24261;SDS011;12385;51.412;5.540;2023-06-19T05:18:34;8.38;;;3.80;;
24261;SDS011;12385;51.412;5.540;2023-06-19T05:21:00;6.82;;;3.50;;
24261;SDS011;12385;51.412;5.540;2023-06-19T05:23:27;8.02;;;3.88;;
24261;SDS011;12385;51.412;5.540;2023-06-19T05:25:53;7.68;;;3.80;;
24261;SDS011;12385;51.412;5.540;2023-06-19T05:28:18;8.30;;;4.00;;
24261;SDS011;12385;51.412;5.540;2023-06-19T05:30:46;10.52;;;3.78;;
24261;SDS011;12385;51.412;5.540;2023-06-19T05:33:12;8.73;;;3.88;;
24261;SDS011;12385;51.412;5.540;2023-06-19T05:35:40;6.15;;;3.97;;
24261;SDS011;12385;51.412;5.540;2023-06-19T05:38:08;7.93;;;3.70;;
24261;SDS011;12385;51.412;5.540;2023-06-19T05:40:34;6.85;;;4.07;;
24261;SDS011;12385;51.412;5.540;2023-06-19T05:43:00;6.03;;;3.60;;
24261;SDS011;12385;51.412;5.540;2023-06-19T05:45:25;9.48;;;3.80;;
24261;SDS011;12385;51.412;5.540;2023-06-19T05:47:51;4.78;;;3.95;;
24261;SDS011;12385;51.412;5.540;2023-06-19T05:50:17;5.95;;;3.65;;
24261;SDS011;12385;51.412;5.540;2023-06-19T05:52:44;6.35;;;4.15;;
24261;SDS011;12385;51.412;5.540;2023-06-19T05:55:10;5.30;;;4.00;;
24261;SDS011;12385;51.412;5.540;2023-06-19T05:57:37;10.85;;;3.78;;
24261;SDS011;12385;51.412;5.540;2023-06-19T06:00:05;7.22;;;3.80;;
24261;SDS011;12385;51.412;5.540;2023-06-19T06:02:32;5.30;;;3.95;;
24261;SDS011;12385;51.412;5.540;2023-06-19T06:04:57;8.70;;;3.78;;
24261;SDS011;12385;51.412;5.540;2023-06-19T06:07:24;8.18;;;3.60;;
24261;SDS011;12385;51.412;5.540;2023-06-19T06:09:52;7.15;;;3.65;;
24261;SDS011;12385;51.412;5.540;2023-06-19T06:12:18;3.50;;;3.17;;
24261;SDS011;12385;51.412;5.540;2023-06-19T06:14:43;7.10;;;3.60;;
24261;SDS011;12385;51.412;5.540;2023-06-19T06:17:09;6.70;;;3.20;;
24261;SDS011;12385;51.412;5.540;2023-06-19T06:19:35;5.65;;;3.20;;
24261;SDS011;12385;51.412;5.540;2023-06-19T06:22:02;4.32;;;3.40;;
24261;SDS011;12385;51.412;5.540;2023-06-19T06:24:27;5.70;;;3.25;;
24261;SDS011;12385;51.412;5.540;2023-06-19T06:26:53;10.20;;;3.40;;
24261;SDS011;12385;51.412;5.540;2023-06-19T06:29:18;5.63;;;3.30;;
24261;SDS011;12385;51.412;5.540;2023-06-19T06:31:45;6.05;;;2.88;;
24261;SDS011;12385;51.412;5.540;2023-06-19T06:34:12;5.10;;;2.97;;
24261;SDS011;12385;51.412;5.540;2023-06-19T06:36:38;3.95;;;2.67;;
24261;SDS011;12385;51.412;5.540;2023-06-19T06:39:04;4.07;;;2.88;;
24261;SDS011;12385;51.412;5.540;2023-06-19T06:41:31;8.07;;;3.58;;
24261;SDS011;12385;51.412;5.540;2023-06-19T06:43:57;4.88;;;3.25;;
24261;SDS011;12385;51.412;5.540;2023-06-19T06:46:22;4.63;;;3.53;;
24261;SDS011;12385;51.412;5.540;2023-06-19T06:48:49;5.32;;;3.60;;
24261;SDS011;12385;51.412;5.540;2023-06-19T06:51:15;6.28;;;3.75;;
24261;SDS011;12385;51.412;5.540;2023-06-19T06:53:40;5.70;;;3.42;;
24261;SDS011;12385;51.412;5.540;2023-06-19T06:56:06;5.22;;;3.53;;
24261;SDS011;12385;51.412;5.540;2023-06-19T06:58:31;7.57;;;3.45;;
24261;SDS011;12385;51.412;5.540;2023-06-19T07:00:57;5.40;;;3.20;;
24261;SDS011;12385;51.412;5.540;2023-06-19T07:03:22;7.70;;;3.45;;
24261;SDS011;12385;51.412;5.540;2023-06-19T07:05:48;6.35;;;3.90;;
24261;SDS011;12385;51.412;5.540;2023-06-19T07:08:14;6.68;;;4.05;;
24261;SDS011;12385;51.412;5.540;2023-06-19T07:10:39;8.10;;;4.18;;
24261;SDS011;12385;51.412;5.540;2023-06-19T07:13:05;6.30;;;4.18;;
24261;SDS011;12385;51.412;5.540;2023-06-19T07:15:31;6.93;;;4.53;;
24261;SDS011;12385;51.412;5.540;2023-06-19T07:17:56;5.82;;;4.63;;
24261;SDS011;12385;51.412;5.540;2023-06-19T07:20:22;6.97;;;5.32;;
24261;SDS011;12385;51.412;5.540;2023-06-19T07:22:50;9.60;;;5.07;;
24261;SDS011;12385;51.412;5.540;2023-06-19T07:25:16;9.55;;;6.25;;
24261;SDS011;12385;51.412;5.540;2023-06-19T07:27:42;7.30;;;5.10;;
24261;SDS011;12385;51.412;5.540;2023-06-19T07:30:08;10.05;;;5.15;;
24261;SDS011;12385;51.412;5.540;2023-06-19T07:32:35;10.05;;;5.13;;
24261;SDS011;12385;51.412;5.540;2023-06-19T07:35:01;7.85;;;6.03;;
24261;SDS011;12385;51.412;5.540;2023-06-19T07:37:27;6.88;;;5.55;;
24261;SDS011;12385;51.412;5.540;2023-06-19T07:39:53;7.47;;;5.18;;
24261;SDS011;12385;51.412;5.540;2023-06-19T07:42:19;9.15;;;5.10;;
24261;SDS011;12385;51.412;5.540;2023-06-19T07:44:45;13.85;;;5.32;;
24261;SDS011;12385;51.412;5.540;2023-06-19T07:47:11;7.30;;;5.68;;
24261;SDS011;12385;51.412;5.540;2023-06-19T07:49:37;7.68;;;5.78;;
24261;SDS011;12385;51.412;5.540;2023-06-19T07:52:03;13.18;;;5.45;;
24261;SDS011;12385;51.412;5.540;2023-06-19T07:54:29;10.15;;;5.68;;
24261;SDS011;12385;51.412;5.540;2023-06-19T07:56:55;7.80;;;5.25;;
24261;SDS011;12385;51.412;5.540;2023-06-19T07:59:21;11.18;;;4.70;;
24261;SDS011;12385;51.412;5.540;2023-06-19T08:01:47;10.52;;;5.18;;
24261;SDS011;12385;51.412;5.540;2023-06-19T08:04:13;6.78;;;4.50;;
24261;SDS011;12385;51.412;5.540;2023-06-19T08:06:39;7.28;;;4.97;;
24261;SDS011;12385;51.412;5.540;2023-06-19T08:09:05;8.05;;;4.85;;
24261;SDS011;12385;51.412;5.540;2023-06-19T08:11:31;7.35;;;4.57;;
24261;SDS011;12385;51.412;5.540;2023-06-19T08:13:57;8.68;;;5.30;;
24261;SDS011;12385;51.412;5.540;2023-06-19T08:16:24;5.45;;;4.80;;
24261;SDS011;12385;51.412;5.540;2023-06-19T08:18:50;6.28;;;4.50;;
24261;SDS011;12385;51.412;5.540;2023-06-19T08:21:16;8.95;;;4.65;;
24261;SDS011;12385;51.412;5.540;2023-06-19T08:23:42;8.15;;;5.18;;
24261;SDS011;12385;51.412;5.540;2023-06-19T08:26:09;9.40;;;4.60;;
24261;SDS011;12385;51.412;5.540;2023-06-19T08:28:35;9.02;;;5.00;;
24261;SDS011;12385;51.412;5.540;2023-06-19T08:31:02;7.30;;;4.40;;
24261;SDS011;12385;51.412;5.540;2023-06-19T08:33:27;8.52;;;4.60;;
24261;SDS011;12385;51.412;5.540;2023-06-19T08:35:53;8.07;;;5.38;;
24261;SDS011;12385;51.412;5.540;2023-06-19T08:38:18;9.23;;;4.80;;
24261;SDS011;12385;51.412;5.540;2023-06-19T08:40:44;9.82;;;4.90;;
24261;SDS011;12385;51.412;5.540;2023-06-19T08:43:10;5.57;;;4.70;;
24261;SDS011;12385;51.412;5.540;2023-06-19T08:45:36;7.65;;;4.63;;
24261;SDS011;12385;51.412;5.540;2023-06-19T08:48:03;11.60;;;5.13;;
24261;SDS011;12385;51.412;5.540;2023-06-19T08:50:32;7.00;;;4.53;;
24261;SDS011;12385;51.412;5.540;2023-06-19T08:52:58;8.15;;;4.60;;
24261;SDS011;12385;51.412;5.540;2023-06-19T08:55:24;7.30;;;4.38;;
24261;SDS011;12385;51.412;5.540;2023-06-19T08:57:50;6.07;;;4.40;;
24261;SDS011;12385;51.412;5.540;2023-06-19T09:00:27;6.10;;;4.80;;
24261;SDS011;12385;51.412;5.540;2023-06-19T09:03:02;9.63;;;4.88;;
24261;SDS011;12385;51.412;5.540;2023-06-19T09:05:28;6.25;;;5.13;;
24261;SDS011;12385;51.412;5.540;2023-06-19T09:07:55;9.35;;;5.43;;
24261;SDS011;12385;51.412;5.540;2023-06-19T09:10:22;7.40;;;4.88;;
24261;SDS011;12385;51.412;5.540;2023-06-19T09:15:28;8.07;;;4.93;;
24261;SDS011;12385;51.412;5.540;2023-06-19T09:18:06;9.20;;;5.30;;
24261;SDS011;12385;51.412;5.540;2023-06-19T09:20:34;12.00;;;5.43;;
24261;SDS011;12385;51.412;5.540;2023-06-19T09:23:04;6.35;;;4.95;;
24261;SDS011;12385;51.412;5.540;2023-06-19T09:25:31;8.15;;;5.90;;
24261;SDS011;12385;51.412;5.540;2023-06-19T09:27:56;7.30;;;5.13;;
24261;SDS011;12385;51.412;5.540;2023-06-19T09:30:22;9.48;;;5.28;;
24261;SDS011;12385;51.412;5.540;2023-06-19T09:32:49;8.57;;;5.35;;
24261;SDS011;12385;51.412;5.540;2023-06-19T09:35:15;7.55;;;4.95;;
24261;SDS011;12385;51.412;5.540;2023-06-19T09:37:41;14.88;;;5.70;;
24261;SDS011;12385;51.412;5.540;2023-06-19T09:40:09;8.45;;;5.97;;
24261;SDS011;12385;51.412;5.540;2023-06-19T09:42:39;7.40;;;5.53;;
24261;SDS011;12385;51.412;5.540;2023-06-19T09:45:10;7.88;;;4.90;;
24261;SDS011;12385;51.412;5.540;2023-06-19T09:47:44;6.85;;;5.38;;
24261;SDS011;12385;51.412;5.540;2023-06-19T09:50:12;10.25;;;5.53;;
24261;SDS011;12385;51.412;5.540;2023-06-19T09:52:40;11.40;;;5.43;;
24261;SDS011;12385;51.412;5.540;2023-06-19T09:55:07;9.05;;;5.63;;
24261;SDS011;12385;51.412;5.540;2023-06-19T09:57:35;8.30;;;5.20;;
24261;SDS011;12385;51.412;5.540;2023-06-19T10:00:03;11.95;;;6.00;;
24261;SDS011;12385;51.412;5.540;2023-06-19T10:02:48;7.45;;;4.90;;
24261;SDS011;12385;51.412;5.540;2023-06-19T10:05:14;9.25;;;5.47;;
24261;SDS011;12385;51.412;5.540;2023-06-19T10:07:46;10.70;;;5.85;;
24261;SDS011;12385;51.412;5.540;2023-06-19T10:10:22;12.32;;;5.88;;
24261;SDS011;12385;51.412;5.540;2023-06-19T10:12:49;10.55;;;5.93;;
24261;SDS011;12385;51.412;5.540;2023-06-19T10:17:45;9.50;;;6.15;;
24261;SDS011;12385;51.412;5.540;2023-06-19T10:20:24;10.02;;;6.53;;
24261;SDS011;12385;51.412;5.540;2023-06-19T10:23:07;8.90;;;5.63;;
24261;SDS011;12385;51.412;5.540;2023-06-19T10:25:37;8.88;;;5.75;;
24261;SDS011;12385;51.412;5.540;2023-06-19T10:28:04;9.55;;;6.20;;
24261;SDS011;12385;51.412;5.540;2023-06-19T10:31:07;7.68;;;5.68;;
24261;SDS011;12385;51.412;5.540;2023-06-19T10:33:34;7.18;;;5.43;;
24261;SDS011;12385;51.412;5.540;2023-06-19T10:36:20;9.13;;;6.05;;
24261;SDS011;12385;51.412;5.540;2023-06-19T10:38:51;9.73;;;6.03;;
24261;SDS011;12385;51.412;5.540;2023-06-19T10:41:17;11.52;;;5.90;;
24261;SDS011;12385;51.412;5.540;2023-06-19T10:46:48;9.23;;;6.10;;
24261;SDS011;12385;51.412;5.540;2023-06-19T10:49:13;10.15;;;6.10;;
24261;SDS011;12385;51.412;5.540;2023-06-19T10:51:40;9.27;;;5.93;;
24261;SDS011;12385;51.412;5.540;2023-06-19T10:54:08;11.50;;;6.53;;
24261;SDS011;12385;51.412;5.540;2023-06-19T10:56:35;8.50;;;5.88;;
24261;SDS011;12385;51.412;5.540;2023-06-19T10:59:05;14.52;;;5.65;;
24261;SDS011;12385;51.412;5.540;2023-06-19T11:01:55;7.45;;;5.50;;
24261;SDS011;12385;51.412;5.540;2023-06-19T11:04:20;7.00;;;5.85;;
24261;SDS011;12385;51.412;5.540;2023-06-19T11:06:48;9.85;;;6.32;;
24261;SDS011;12385;51.412;5.540;2023-06-19T11:09:14;8.18;;;5.43;;
24261;SDS011;12385;51.412;5.540;2023-06-19T11:11:41;10.60;;;5.82;;
24261;SDS011;12385;51.412;5.540;2023-06-19T11:14:08;9.77;;;6.05;;
24261;SDS011;12385;51.412;5.540;2023-06-19T11:16:34;8.98;;;6.05;;
24261;SDS011;12385;51.412;5.540;2023-06-19T11:19:03;9.98;;;6.20;;
24261;SDS011;12385;51.412;5.540;2023-06-19T11:21:35;8.10;;;5.75;;
24261;SDS011;12385;51.412;5.540;2023-06-19T11:24:05;9.27;;;5.90;;
24261;SDS011;12385;51.412;5.540;2023-06-19T11:26:37;10.00;;;5.40;;
24261;SDS011;12385;51.412;5.540;2023-06-19T11:29:13;7.90;;;5.28;;
24261;SDS011;12385;51.412;5.540;2023-06-19T11:31:43;7.28;;;5.10;;
24261;SDS011;12385;51.412;5.540;2023-06-19T11:34:13;7.55;;;5.43;;
24261;SDS011;12385;51.412;5.540;2023-06-19T11:36:39;17.45;;;5.68;;
24261;SDS011;12385;51.412;5.540;2023-06-19T11:39:12;12.85;;;5.78;;
24261;SDS011;12385;51.412;5.540;2023-06-19T11:41:39;7.47;;;5.43;;
24261;SDS011;12385;51.412;5.540;2023-06-19T11:44:06;6.45;;;5.18;;
24261;SDS011;12385;51.412;5.540;2023-06-19T11:46:34;10.30;;;5.50;;
24261;SDS011;12385;51.412;5.540;2023-06-19T11:51:39;7.85;;;5.43;;
24261;SDS011;12385;51.412;5.540;2023-06-19T11:54:06;7.43;;;4.80;;
24261;SDS011;12385;51.412;5.540;2023-06-19T11:56:33;10.45;;;5.35;;
24261;SDS011;12385;51.412;5.540;2023-06-19T11:59:00;9.30;;;5.15;;
24261;SDS011;12385;51.412;5.540;2023-06-19T12:01:26;13.13;;;4.78;;
24261;SDS011;12385;51.412;5.540;2023-06-19T12:03:54;8.45;;;4.97;;
24261;SDS011;12385;51.412;5.540;2023-06-19T12:06:19;11.30;;;5.03;;
24261;SDS011;12385;51.412;5.540;2023-06-19T12:08:45;10.43;;;4.78;;
24261;SDS011;12385;51.412;5.540;2023-06-19T12:11:11;8.20;;;4.93;;
24261;SDS011;12385;51.412;5.540;2023-06-19T12:13:40;9.10;;;5.28;;
24261;SDS011;12385;51.412;5.540;2023-06-19T12:16:06;6.28;;;5.30;;
24261;SDS011;12385;51.412;5.540;2023-06-19T12:18:32;7.53;;;5.30;;
24261;SDS011;12385;51.412;5.540;2023-06-19T12:20:59;6.65;;;4.82;;
24261;SDS011;12385;51.412;5.540;2023-06-19T12:23:24;9.90;;;5.25;;
24261;SDS011;12385;51.412;5.540;2023-06-19T12:25:50;8.10;;;5.38;;
24261;SDS011;12385;51.412;5.540;2023-06-19T12:28:18;8.73;;;5.22;;
24261;SDS011;12385;51.412;5.540;2023-06-19T12:30:46;6.60;;;4.75;;
24261;SDS011;12385;51.412;5.540;2023-06-19T12:33:18;9.50;;;4.93;;
24261;SDS011;12385;51.412;5.540;2023-06-19T12:35:45;7.65;;;5.50;;
24261;SDS011;12385;51.412;5.540;2023-06-19T12:38:10;5.90;;;5.30;;
24261;SDS011;12385;51.412;5.540;2023-06-19T12:40:36;7.85;;;5.47;;
24261;SDS011;12385;51.412;5.540;2023-06-19T12:43:02;7.30;;;5.38;;
24261;SDS011;12385;51.412;5.540;2023-06-19T12:45:28;7.60;;;4.93;;
24261;SDS011;12385;51.412;5.540;2023-06-19T12:47:54;7.82;;;4.78;;
24261;SDS011;12385;51.412;5.540;2023-06-19T12:50:19;10.00;;;4.78;;
24261;SDS011;12385;51.412;5.540;2023-06-19T12:52:45;5.70;;;4.50;;
24261;SDS011;12385;51.412;5.540;2023-06-19T12:55:12;10.13;;;4.70;;
24261;SDS011;12385;51.412;5.540;2023-06-19T12:57:37;7.32;;;4.72;;
24261;SDS011;12385;51.412;5.540;2023-06-19T13:00:03;7.05;;;5.03;;
24261;SDS011;12385;51.412;5.540;2023-06-19T13:02:36;7.82;;;4.80;;
24261;SDS011;12385;51.412;5.540;2023-06-19T13:05:01;9.90;;;5.03;;
24261;SDS011;12385;51.412;5.540;2023-06-19T13:07:27;7.25;;;4.63;;
24261;SDS011;12385;51.412;5.540;2023-06-19T13:09:53;7.97;;;4.40;;
24261;SDS011;12385;51.412;5.540;2023-06-19T13:12:18;6.85;;;4.43;;
24261;SDS011;12385;51.412;5.540;2023-06-19T13:14:44;7.80;;;4.85;;
24261;SDS011;12385;51.412;5.540;2023-06-19T13:17:09;8.15;;;4.57;;
24261;SDS011;12385;51.412;5.540;2023-06-19T13:19:35;6.20;;;4.57;;
24261;SDS011;12385;51.412;5.540;2023-06-19T13:22:00;6.20;;;4.82;;
24261;SDS011;12385;51.412;5.540;2023-06-19T13:24:26;7.00;;;4.47;;
24261;SDS011;12385;51.412;5.540;2023-06-19T13:26:52;8.05;;;4.30;;
24261;SDS011;12385;51.412;5.540;2023-06-19T13:29:18;5.00;;;4.50;;
24261;SDS011;12385;51.412;5.540;2023-06-19T13:31:44;5.47;;;3.80;;
24261;SDS011;12385;51.412;5.540;2023-06-19T13:34:10;4.43;;;3.95;;
24261;SDS011;12385;51.412;5.540;2023-06-19T13:36:36;5.68;;;3.80;;
24261;SDS011;12385;51.412;5.540;2023-06-19T13:39:01;7.38;;;4.47;;
24261;SDS011;12385;51.412;5.540;2023-06-19T13:41:27;4.88;;;3.65;;
24261;SDS011;12385;51.412;5.540;2023-06-19T13:43:55;7.10;;;3.75;;
24261;SDS011;12385;51.412;5.540;2023-06-19T13:46:21;5.75;;;4.07;;
24261;SDS011;12385;51.412;5.540;2023-06-19T13:48:47;5.18;;;3.70;;
24261;SDS011;12385;51.412;5.540;2023-06-19T13:51:15;4.72;;;3.63;;
24261;SDS011;12385;51.412;5.540;2023-06-19T13:53:42;5.68;;;3.80;;
24261;SDS011;12385;51.412;5.540;2023-06-19T13:56:07;4.80;;;3.92;;
24261;SDS011;12385;51.412;5.540;2023-06-19T13:58:33;5.10;;;3.63;;
24261;SDS011;12385;51.412;5.540;2023-06-19T14:00:59;6.03;;;4.00;;
24261;SDS011;12385;51.412;5.540;2023-06-19T14:03:24;5.80;;;4.10;;
24261;SDS011;12385;51.412;5.540;2023-06-19T14:05:51;9.63;;;4.40;;
24261;SDS011;12385;51.412;5.540;2023-06-19T14:08:17;4.95;;;3.78;;
24261;SDS011;12385;51.412;5.540;2023-06-19T14:10:42;6.88;;;3.95;;
24261;SDS011;12385;51.412;5.540;2023-06-19T14:13:08;5.60;;;3.70;;
24261;SDS011;12385;51.412;5.540;2023-06-19T14:15:34;6.47;;;3.63;;
24261;SDS011;12385;51.412;5.540;2023-06-19T14:18:00;4.35;;;3.40;;
24261;SDS011;12385;51.412;5.540;2023-06-19T14:20:26;6.57;;;3.58;;
24261;SDS011;12385;51.412;5.540;2023-06-19T14:22:52;6.15;;;3.72;;
24261;SDS011;12385;51.412;5.540;2023-06-19T14:25:17;5.93;;;3.50;;
24261;SDS011;12385;51.412;5.540;2023-06-19T14:27:44;5.95;;;3.50;;
24261;SDS011;12385;51.412;5.540;2023-06-19T14:30:11;4.70;;;3.55;;
24261;SDS011;12385;51.412;5.540;2023-06-19T14:32:37;4.93;;;3.47;;
24261;SDS011;12385;51.412;5.540;2023-06-19T14:35:03;4.97;;;3.45;;
24261;SDS011;12385;51.412;5.540;2023-06-19T14:37:29;4.95;;;3.42;;
24261;SDS011;12385;51.412;5.540;2023-06-19T14:39:55;6.63;;;3.67;;
24261;SDS011;12385;51.412;5.540;2023-06-19T14:42:22;5.45;;;3.55;;
24261;SDS011;12385;51.412;5.540;2023-06-19T14:44:48;7.22;;;3.45;;
24261;SDS011;12385;51.412;5.540;2023-06-19T14:47:13;6.22;;;3.28;;
24261;SDS011;12385;51.412;5.540;2023-06-19T14:49:40;5.75;;;3.72;;
24261;SDS011;12385;51.412;5.540;2023-06-19T14:52:06;5.40;;;3.80;;
24261;SDS011;12385;51.412;5.540;2023-06-19T14:54:32;5.95;;;3.95;;
24261;SDS011;12385;51.412;5.540;2023-06-19T14:56:58;8.38;;;3.75;;